createdAt,value
2018-03-18T00:00:07.609Z,97996.06
2018-03-18T00:02:39.792Z,97992.50
2018-03-18T00:05:09.039Z,97995.98
2018-03-18T00:07:37.806Z,97990.67
2018-03-18T00:10:07.253Z,97996.16
2018-03-18T00:12:39.063Z,98001.59
2018-03-18T00:15:07.487Z,97996.37
2018-03-18T00:17:36.795Z,98001.48
2018-03-18T00:20:06.294Z,98002.38
2018-03-18T00:22:36.207Z,98001.22
2018-03-18T00:25:05.501Z,97995.45
2018-03-18T00:27:33.924Z,97990.94
2018-03-18T00:30:02.310Z,97994.16
2018-03-18T00:32:30.741Z,98010.47
2018-03-18T00:34:59.890Z,98000.53
2018-03-18T00:37:28.311Z,98005.71
2018-03-18T00:39:58.355Z,98010.14
2018-03-18T00:42:28.092Z,98001.12
2018-03-18T00:44:57.321Z,98002.14
2018-03-18T00:47:25.912Z,97997.23
2018-03-18T00:49:54.370Z,98006.20
2018-03-18T00:52:23.615Z,98002.46
2018-03-18T00:54:53.016Z,98006.40
2018-03-18T00:57:22.776Z,98004.96
2018-03-18T00:59:51.266Z,98002.84
2018-03-18T01:02:19.688Z,98017.75
2018-03-18T01:04:48.999Z,98025.00
2018-03-18T01:07:18.493Z,98020.40
2018-03-18T01:09:49.422Z,98022.78
2018-03-18T01:12:20.718Z,98021.44
2018-03-18T01:14:49.230Z,98022.45
2018-03-18T01:17:18.449Z,98021.04
2018-03-18T01:19:46.866Z,98016.63
2018-03-18T01:22:16.338Z,98023.60
2018-03-18T01:24:45.629Z,98008.52
2018-03-18T01:27:16.562Z,98017.47
2018-03-18T01:29:48.662Z,98018.09
2018-03-18T01:32:19.984Z,98015.64
2018-03-18T01:34:49.258Z,98000.73
2018-03-18T01:37:17.874Z,97996.47
2018-03-18T01:39:47.543Z,98002.09
2018-03-18T01:42:15.931Z,97997.98
2018-03-18T01:44:45.996Z,97996.27
2018-03-18T01:47:14.660Z,97994.95
2018-03-18T01:49:43.001Z,98001.94
2018-03-18T01:52:13.146Z,97991.41
2018-03-18T01:54:41.496Z,97976.59
2018-03-18T01:57:10.848Z,97977.89
2018-03-18T01:59:39.776Z,97984.00
2018-03-18T02:02:08.133Z,97982.28
2018-03-18T02:04:37.994Z,97981.34
2018-03-18T02:07:06.404Z,97982.50
2018-03-18T02:09:34.841Z,97983.55
2018-03-18T02:12:04.285Z,97981.90
2018-03-18T02:14:32.679Z,97980.13
2018-03-18T02:17:03.519Z,97977.77
2018-03-18T02:19:33.472Z,97977.38
2018-03-18T02:22:02.186Z,97977.52
2018-03-18T02:24:32.198Z,97977.69
2018-03-18T02:27:00.606Z,97966.41
2018-03-18T02:29:29.500Z,97985.67
2018-03-18T02:31:59.590Z,97973.81
2018-03-18T02:34:30.638Z,97962.34
2018-03-18T02:37:00.674Z,97965.52
2018-03-18T02:39:31.427Z,97973.25
2018-03-18T02:42:00.557Z,97963.99
2018-03-18T02:44:31.051Z,97965.16
2018-03-18T02:47:00.551Z,97961.66
2018-03-18T02:49:29.737Z,97960.73
2018-03-18T02:51:59.099Z,97961.56
2018-03-18T02:54:29.446Z,97968.64
2018-03-18T02:56:59.238Z,97955.43
2018-03-18T02:59:28.061Z,97962.61
2018-03-18T03:01:57.737Z,97961.36
2018-03-18T03:04:31.040Z,97966.95
2018-03-18T03:07:00.059Z,97959.16
2018-03-18T03:09:29.885Z,97967.43
2018-03-18T03:11:59.199Z,97961.56
2018-03-18T03:14:28.450Z,97961.41
2018-03-18T03:16:57.657Z,97962.19
2018-03-18T03:19:26.969Z,97959.44
2018-03-18T03:21:55.646Z,97972.63
2018-03-18T03:24:24.311Z,97964.09
2018-03-18T03:26:53.663Z,97963.17
2018-03-18T03:29:23.315Z,97963.10
2018-03-18T03:31:53.007Z,97970.12
2018-03-18T03:34:21.334Z,97974.41
2018-03-18T03:36:49.712Z,97981.62
2018-03-18T03:39:19.111Z,97973.33
2018-03-18T03:41:47.587Z,97975.80
2018-03-18T03:44:16.934Z,97976.24
2018-03-18T03:46:47.378Z,97975.67
2018-03-18T03:49:15.883Z,97993.06
2018-03-18T03:51:45.000Z,97979.41
2018-03-18T03:54:13.915Z,97983.26
2018-03-18T03:56:45.481Z,97979.29
2018-03-18T03:59:14.397Z,97986.22
2018-03-18T04:01:44.156Z,97987.54
2018-03-18T04:04:13.703Z,97989.86
2018-03-18T04:06:42.663Z,97970.33
2018-03-18T04:09:11.693Z,97984.03
2018-03-18T04:11:41.037Z,97989.23
2018-03-18T04:14:10.330Z,97981.02
2018-03-18T04:16:39.500Z,97987.60
2018-03-18T04:19:09.960Z,97981.25
2018-03-18T04:21:40.641Z,97981.14
2018-03-18T04:24:10.172Z,97980.31
2018-03-18T04:26:38.956Z,97986.98
2018-03-18T04:29:11.072Z,97984.97
2018-03-18T04:31:41.141Z,97977.20
2018-03-18T04:34:10.419Z,97975.91
2018-03-18T04:36:39.581Z,97977.82
2018-03-18T04:39:09.718Z,97976.88
2018-03-18T04:41:39.735Z,97970.49
2018-03-18T04:44:09.216Z,97971.72
2018-03-18T04:46:38.540Z,97978.32
2018-03-18T04:49:08.414Z,97969.72
2018-03-18T04:51:37.338Z,97967.91
2018-03-18T04:54:07.051Z,97985.63
2018-03-18T04:56:35.458Z,97985.31
2018-03-18T04:59:05.508Z,97977.96
2018-03-18T05:01:34.772Z,98003.41
2018-03-18T05:04:03.903Z,97992.30
2018-03-18T05:06:36.942Z,97989.50
2018-03-18T05:09:07.963Z,97998.28
2018-03-18T05:11:37.974Z,98001.77
2018-03-18T05:14:07.200Z,97988.41
2018-03-18T05:16:37.895Z,97998.03
2018-03-18T05:19:06.485Z,98008.27
2018-03-18T05:21:37.171Z,98003.95
2018-03-18T05:24:06.467Z,97990.09
2018-03-18T05:26:36.305Z,97997.61
2018-03-18T05:29:05.836Z,97997.72
2018-03-18T05:31:34.220Z,98002.92
2018-03-18T05:34:03.619Z,98007.54
2018-03-18T05:36:34.492Z,98003.42
2018-03-18T05:39:02.859Z,98012.95
2018-03-18T05:41:33.250Z,98008.72
2018-03-18T05:44:02.576Z,98005.78
2018-03-18T05:46:32.574Z,98016.45
2018-03-18T05:49:00.986Z,98008.07
2018-03-18T05:51:29.471Z,98014.27
2018-03-18T05:53:57.851Z,98023.99
2018-03-18T05:56:26.842Z,98027.47
2018-03-18T05:58:55.971Z,98040.75
2018-03-18T06:01:25.614Z,98038.72
2018-03-18T06:03:55.287Z,98041.28
2018-03-18T06:06:24.525Z,98044.66
2018-03-18T06:08:52.957Z,98041.98
2018-03-18T06:11:23.181Z,98046.18
2018-03-18T06:13:52.886Z,98048.30
2018-03-18T06:16:22.667Z,98042.66
2018-03-18T06:18:51.670Z,98040.52
2018-03-18T06:21:20.043Z,98049.37
2018-03-18T06:23:49.551Z,98045.03
2018-03-18T06:26:19.275Z,98056.16
2018-03-18T06:28:47.772Z,98053.84
2018-03-18T06:31:17.581Z,98057.22
2018-03-18T06:33:48.194Z,98059.64
2018-03-18T06:36:18.835Z,98063.22
2018-03-18T06:38:47.215Z,98071.80
2018-03-18T06:41:17.023Z,98074.09
2018-03-18T06:43:45.817Z,98081.39
2018-03-18T06:46:16.748Z,98077.61
2018-03-18T06:48:47.201Z,98078.91
2018-03-18T06:51:17.412Z,98083.01
2018-03-18T06:53:46.685Z,98096.25
2018-03-18T06:56:18.346Z,98077.81
2018-03-18T06:58:46.719Z,98091.61
2018-03-18T07:01:15.863Z,98095.52
2018-03-18T07:03:44.510Z,98098.29
2018-03-18T07:06:14.389Z,98105.69
2018-03-18T07:08:45.433Z,98108.36
2018-03-18T07:11:14.731Z,98120.94
2018-03-18T07:13:43.842Z,98119.31
2018-03-18T07:16:13.000Z,98114.78
2018-03-18T07:18:41.735Z,98121.73
2018-03-18T07:21:12.831Z,98118.46
2018-03-18T07:23:42.624Z,98122.75
2018-03-18T07:26:14.329Z,98127.38
2018-03-18T07:28:43.748Z,98126.44
2018-03-18T07:31:17.241Z,98117.05
2018-03-18T07:33:45.658Z,98136.00
2018-03-18T07:36:14.959Z,98139.38
2018-03-18T07:38:46.653Z,98136.75
2018-03-18T07:41:15.874Z,98140.38
2018-03-18T07:43:45.219Z,98139.55
2018-03-18T07:46:14.308Z,98144.95
2018-03-18T07:48:44.081Z,98138.58
2018-03-18T07:51:14.292Z,98144.38
2018-03-18T07:53:45.267Z,98146.63
2018-03-18T07:56:16.975Z,98141.94
2018-03-18T07:58:47.099Z,98139.56
2018-03-18T08:01:16.499Z,98149.08
2018-03-18T08:03:46.757Z,98148.34
2018-03-18T08:06:17.295Z,98157.16
2018-03-18T08:08:46.218Z,98145.45
2018-03-18T08:11:14.836Z,98151.37
2018-03-18T08:13:44.003Z,98151.56
2018-03-18T08:16:13.254Z,98150.30
2018-03-18T08:18:42.782Z,98152.78
2018-03-18T08:21:11.348Z,98156.31
2018-03-18T08:23:39.680Z,98150.30
2018-03-18T08:26:09.736Z,98165.58
2018-03-18T08:28:39.895Z,98159.38
2018-03-18T08:31:09.758Z,98160.56
2018-03-18T08:33:38.148Z,98164.06
2018-03-18T08:36:06.840Z,98162.91
2018-03-18T08:38:36.719Z,98162.17
2018-03-18T08:41:06.407Z,98149.13
2018-03-18T08:43:35.668Z,98159.41
2018-03-18T08:46:04.705Z,98165.14
2018-03-18T08:48:33.946Z,98160.95
2018-03-18T08:51:03.112Z,98169.89
2018-03-18T08:53:31.927Z,98175.55
2018-03-18T08:56:01.102Z,98171.89
2018-03-18T08:58:33.480Z,98177.65
2018-03-18T09:01:03.426Z,98174.81
2018-03-18T09:03:32.969Z,98178.93
2018-03-18T09:06:02.952Z,98186.27
2018-03-18T09:08:32.392Z,98179.55
2018-03-18T09:11:02.372Z,98190.56
2018-03-18T09:13:31.565Z,98188.78
2018-03-18T09:16:00.821Z,98185.63
2018-03-18T09:18:30.158Z,98191.47
2018-03-18T09:21:00.735Z,98188.30
2018-03-18T09:23:30.079Z,98190.27
2018-03-18T09:25:58.492Z,98196.66
2018-03-18T09:28:27.325Z,98204.38
2018-03-18T09:30:55.757Z,98203.80
2018-03-18T09:33:25.150Z,98197.00
2018-03-18T09:35:55.234Z,98199.39
2018-03-18T09:38:24.580Z,98190.80
2018-03-18T09:40:54.164Z,98202.79
2018-03-18T09:43:24.373Z,98200.23
2018-03-18T09:45:54.054Z,98205.57
2018-03-18T09:48:24.848Z,98208.94
2018-03-18T09:50:55.597Z,98204.62
2018-03-18T09:53:24.458Z,98194.16
2018-03-18T09:55:53.982Z,98203.11
2018-03-18T09:58:23.535Z,98211.02
2018-03-18T10:00:54.205Z,98202.78
2018-03-18T10:03:24.199Z,98204.05
2018-03-18T10:05:55.857Z,98216.91
2018-03-18T10:08:25.589Z,98207.09
2018-03-18T10:10:58.741Z,98213.77
2018-03-18T10:13:27.745Z,98211.70
2018-03-18T10:15:57.656Z,98219.18
2018-03-18T10:18:27.148Z,98216.96
2018-03-18T10:20:56.866Z,98220.55
2018-03-18T10:23:27.898Z,98214.97
2018-03-18T10:25:59.060Z,98217.67
2018-03-18T10:28:31.199Z,98211.39
2018-03-18T10:31:08.909Z,98210.72
2018-03-18T10:33:37.999Z,98203.77
2018-03-18T10:36:06.704Z,98214.27
2018-03-18T10:38:35.034Z,98213.80
2018-03-18T10:41:06.531Z,98213.08
2018-03-18T10:43:37.928Z,98208.42
2018-03-18T10:46:06.746Z,98220.00
2018-03-18T10:48:36.488Z,98209.81
2018-03-18T10:51:06.296Z,98217.22
2018-03-18T10:53:36.413Z,98222.08
2018-03-18T10:56:04.844Z,98222.22
2018-03-18T10:58:39.749Z,98219.11
2018-03-18T11:01:19.314Z,98222.47
2018-03-18T11:03:55.137Z,98217.12
2018-03-18T11:06:27.695Z,98213.94
2018-03-18T11:08:56.838Z,98222.58
2018-03-18T11:11:27.332Z,98230.95
2018-03-18T11:13:56.712Z,98233.22
2018-03-18T11:16:25.372Z,98226.22
2018-03-18T11:18:53.752Z,98223.32
2018-03-18T11:21:24.512Z,98223.41
2018-03-18T11:23:54.636Z,98218.80
2018-03-18T11:26:24.773Z,98219.46
2018-03-18T11:28:54.059Z,98222.74
2018-03-18T11:31:23.087Z,98219.81
2018-03-18T11:33:51.451Z,98213.48
2018-03-18T11:36:21.717Z,98220.66
2018-03-18T11:38:50.380Z,98228.06
2018-03-18T11:41:19.193Z,98223.93
2018-03-18T11:43:48.682Z,98215.80
2018-03-18T11:46:21.728Z,98222.30
2018-03-18T11:48:51.319Z,98223.01
2018-03-18T11:51:22.578Z,98221.59
2018-03-18T11:53:51.681Z,98230.89
2018-03-18T11:56:20.564Z,98226.48
2018-03-18T11:58:49.726Z,98232.85
2018-03-18T12:01:18.316Z,98225.89
2018-03-18T12:03:47.116Z,98221.71
2018-03-18T12:06:16.714Z,98231.22
2018-03-18T12:08:56.928Z,98226.59
2018-03-18T12:11:25.908Z,98224.40
2018-03-18T12:13:54.502Z,98231.41
2018-03-18T12:16:22.903Z,98225.02
2018-03-18T12:18:52.205Z,98224.86
2018-03-18T12:21:20.631Z,98224.94
2018-03-18T12:23:49.112Z,98221.94
2018-03-18T12:26:18.082Z,98223.47
2018-03-18T12:28:47.341Z,98219.10
2018-03-18T12:31:16.926Z,98231.48
2018-03-18T12:33:45.258Z,98228.73
2018-03-18T12:36:16.279Z,98221.52
2018-03-18T12:38:46.327Z,98208.62
2018-03-18T12:41:14.707Z,98210.51
2018-03-18T12:43:43.583Z,98219.81
2018-03-18T12:46:12.153Z,98211.91
2018-03-18T12:48:40.484Z,98211.23
2018-03-18T12:51:09.765Z,98209.62
2018-03-18T12:53:38.714Z,98205.54
2018-03-18T12:56:09.855Z,98217.34
2018-03-18T12:58:38.801Z,98210.30
2018-03-18T13:01:07.635Z,98200.72
2018-03-18T13:03:37.708Z,98207.84
2018-03-18T13:06:06.572Z,98210.14
2018-03-18T13:08:35.866Z,98214.02
2018-03-18T13:11:04.252Z,98230.98
2018-03-18T13:13:34.348Z,98219.45
2018-03-18T13:16:02.712Z,98217.31
2018-03-18T13:18:31.407Z,98219.75
2018-03-18T13:20:59.887Z,98223.76
2018-03-18T13:23:29.138Z,98227.14
2018-03-18T13:25:57.490Z,98235.52
2018-03-18T13:28:26.673Z,98230.80
2018-03-18T13:30:55.348Z,98227.89
2018-03-18T13:33:25.178Z,98227.69
2018-03-18T13:35:54.480Z,98229.92
2018-03-18T13:38:23.135Z,98232.13
2018-03-18T13:40:51.500Z,98232.82
2018-03-18T13:43:20.009Z,98233.98
2018-03-18T13:45:49.157Z,98239.33
2018-03-18T13:48:18.298Z,98225.31
2018-03-18T13:50:47.379Z,98237.67
2018-03-18T13:53:16.320Z,98235.72
2018-03-18T13:55:45.477Z,98224.35
2018-03-18T13:58:14.421Z,98224.33
2018-03-18T14:00:42.845Z,98216.11
2018-03-18T14:03:11.257Z,98228.81
2018-03-18T14:05:39.640Z,98223.89
2018-03-18T14:08:08.058Z,98228.16
2018-03-18T14:10:40.233Z,98232.87
2018-03-18T14:13:08.872Z,98222.36
2018-03-18T14:15:38.988Z,98232.45
2018-03-18T14:18:07.513Z,98221.58
2018-03-18T14:20:35.841Z,98217.11
2018-03-18T14:23:04.190Z,98229.81
2018-03-18T14:25:33.454Z,98233.40
2018-03-18T14:28:02.481Z,98241.47
2018-03-18T14:30:34.807Z,98239.31
2018-03-18T14:33:03.627Z,98239.03
2018-03-18T14:35:32.716Z,98237.93
2018-03-18T14:38:01.051Z,98247.81
2018-03-18T14:40:30.337Z,98238.99
2018-03-18T14:42:59.699Z,98240.78
2018-03-18T14:45:32.106Z,98242.60
2018-03-18T14:48:01.095Z,98244.47
2018-03-18T14:50:32.351Z,98249.73
2018-03-18T14:53:00.678Z,98258.33
2018-03-18T14:55:29.104Z,98247.98
2018-03-18T14:57:57.542Z,98251.41
2018-03-18T15:00:27.101Z,98247.24
2018-03-18T15:02:55.437Z,98252.69
2018-03-18T15:05:23.802Z,98253.48
2018-03-18T15:07:52.147Z,98261.36
2018-03-18T15:10:21.966Z,98256.21
2018-03-18T15:12:50.290Z,98257.20
2018-03-18T15:15:18.663Z,98230.67
2018-03-18T15:17:47.634Z,98264.05
2018-03-18T15:20:16.083Z,98267.80
2018-03-18T15:22:44.435Z,98258.39
2018-03-18T15:25:13.327Z,98265.69
2018-03-18T15:27:43.966Z,98274.25
2018-03-18T15:30:12.290Z,98270.61
2018-03-18T15:32:41.542Z,98277.59
2018-03-18T15:35:09.876Z,98277.67
2018-03-18T15:37:38.280Z,98280.13
2018-03-18T15:40:08.520Z,98285.90
2018-03-18T15:42:43.976Z,98291.50
2018-03-18T15:45:12.330Z,98289.15
2018-03-18T15:47:42.192Z,98291.14
2018-03-18T15:50:12.191Z,98290.93
2018-03-18T15:52:40.549Z,98298.28
2018-03-18T15:55:11.589Z,98304.30
2018-03-18T15:57:40.247Z,98304.84
2018-03-18T16:00:09.220Z,98313.00
2018-03-18T16:02:37.846Z,98317.74
2018-03-18T16:05:06.663Z,98319.94
2018-03-18T16:07:35.070Z,98327.48
2018-03-18T16:10:05.253Z,98326.80
2018-03-18T16:12:34.999Z,98328.25
2018-03-18T16:15:03.386Z,98336.98
2018-03-18T16:17:32.602Z,98347.64
2018-03-18T16:20:01.071Z,98347.17
2018-03-18T16:22:29.772Z,98343.88
2018-03-18T16:24:59.493Z,98350.56
2018-03-18T16:27:29.103Z,98354.88
2018-03-18T16:30:11.509Z,98352.94
2018-03-18T16:32:41.702Z,98363.34
2018-03-18T16:35:11.216Z,98370.53
2018-03-18T16:37:39.614Z,98365.49
2018-03-18T16:40:09.039Z,98370.94
2018-03-18T16:42:40.229Z,98373.51
2018-03-18T16:45:12.058Z,98373.76
2018-03-18T16:47:40.476Z,98380.15
2018-03-18T16:50:09.681Z,98377.80
2018-03-18T16:52:39.055Z,98379.26
2018-03-18T16:55:11.291Z,98382.80
2018-03-18T16:57:40.385Z,98383.53
2018-03-18T17:00:08.719Z,98386.16
2018-03-18T17:02:37.530Z,98390.13
2018-03-18T17:05:07.066Z,98391.08
2018-03-18T17:07:37.004Z,98379.94
2018-03-18T17:10:05.390Z,98388.70
2018-03-18T17:12:34.659Z,98396.52
2018-03-18T17:15:05.156Z,98404.97
2018-03-18T17:17:33.487Z,98401.37
2018-03-18T17:20:02.068Z,98406.16
2018-03-18T17:22:31.500Z,98415.73
2018-03-18T17:25:00.771Z,98415.89
2018-03-18T17:27:31.639Z,98418.67
2018-03-18T17:30:01.523Z,98422.75
2018-03-18T17:32:31.143Z,98425.49
2018-03-18T17:35:00.312Z,98426.38
2018-03-18T17:37:29.070Z,98427.59
2018-03-18T17:39:59.003Z,98446.56
2018-03-18T17:42:28.675Z,98439.21
2018-03-18T17:45:12.171Z,98443.69
2018-03-18T17:47:54.371Z,98445.94
2018-03-18T17:50:38.144Z,98452.72
2018-03-18T17:53:18.138Z,98455.75
2018-03-18T17:55:48.857Z,98453.05
2018-03-18T17:58:17.397Z,98462.73
2018-03-18T18:00:47.224Z,98466.50
2018-03-18T18:03:15.888Z,98471.13
2018-03-18T18:05:45.551Z,98471.40
2018-03-18T18:08:15.615Z,98464.48
2018-03-18T18:10:46.333Z,98467.27
2018-03-18T18:13:16.326Z,98465.60
2018-03-18T18:15:48.560Z,98473.07
2018-03-18T18:18:17.808Z,98475.30
2018-03-18T18:20:47.592Z,98475.09
2018-03-18T18:23:17.098Z,98473.09
2018-03-18T18:25:50.592Z,98473.59
2018-03-18T18:28:20.986Z,98476.59
2018-03-18T18:30:56.764Z,98473.12
2018-03-18T18:33:27.150Z,98475.61
2018-03-18T18:35:56.405Z,98466.98
2018-03-18T18:38:25.016Z,98472.44
2018-03-18T18:40:54.498Z,98475.65
2018-03-18T18:43:22.880Z,98484.20
2018-03-18T18:45:52.481Z,98482.13
2018-03-18T18:48:21.876Z,98484.98
2018-03-18T18:50:52.046Z,98484.84
2018-03-18T18:53:22.670Z,98484.55
2018-03-18T18:55:51.792Z,98490.08
2018-03-18T18:58:20.159Z,98487.56
2018-03-18T19:00:49.388Z,98492.23
2018-03-18T19:03:19.684Z,98487.92
2018-03-18T19:05:50.073Z,98488.66
2018-03-18T19:08:19.544Z,98491.02
2018-03-18T19:10:48.833Z,98496.20
2018-03-18T19:13:17.622Z,98490.35
2018-03-18T19:15:46.886Z,98487.50
2018-03-18T19:18:15.971Z,98481.19
2018-03-18T19:20:44.308Z,98481.36
2018-03-18T19:23:12.972Z,98482.67
2018-03-18T19:25:42.162Z,98483.25
2018-03-18T19:28:12.453Z,98477.55
2018-03-18T19:30:40.786Z,98482.16
2018-03-18T19:33:10.013Z,98479.70
2018-03-18T19:35:39.355Z,98476.33
2018-03-18T19:38:07.761Z,98481.18
2018-03-18T19:40:37.135Z,98476.28
2018-03-18T19:43:05.918Z,98482.89
2018-03-18T19:45:34.307Z,98482.44
2018-03-18T19:48:03.745Z,98477.42
2018-03-18T19:50:32.152Z,98470.53
2018-03-18T19:53:00.531Z,98477.44
2018-03-18T19:55:29.189Z,98487.67
2018-03-18T19:57:59.199Z,98484.87
2018-03-18T20:00:28.851Z,98490.88
2018-03-18T20:02:59.634Z,98482.86
2018-03-18T20:05:29.211Z,98481.05
2018-03-18T20:07:59.662Z,98493.06
2018-03-18T20:10:29.644Z,98490.38
2018-03-18T20:12:57.997Z,98487.05
2018-03-18T20:15:26.681Z,98492.47
2018-03-18T20:17:55.795Z,98487.11
2018-03-18T20:20:24.197Z,98492.81
2018-03-18T20:22:52.531Z,98494.92
2018-03-18T20:25:20.900Z,98498.86
2018-03-18T20:27:51.327Z,98497.06
2018-03-18T20:30:23.116Z,98494.40
2018-03-18T20:32:51.442Z,98491.20
2018-03-18T20:35:20.797Z,98498.41
2018-03-18T20:37:51.355Z,98499.28
2018-03-18T20:40:19.792Z,98496.63
2018-03-18T20:42:50.374Z,98505.27
2018-03-18T20:45:19.569Z,98498.19
2018-03-18T20:47:48.784Z,98504.82
2018-03-18T20:50:17.111Z,98497.97
2018-03-18T20:52:46.287Z,98503.86
2018-03-18T20:55:14.618Z,98498.62
2018-03-18T20:57:43.035Z,98510.42
2018-03-18T21:00:13.771Z,98492.33
2018-03-18T21:02:42.152Z,98506.36
2018-03-18T21:05:10.506Z,98506.09
2018-03-18T21:07:41.039Z,98501.45
2018-03-18T21:10:10.176Z,98507.06
2018-03-18T21:12:39.254Z,98507.02
2018-03-18T21:15:07.587Z,98503.58
2018-03-18T21:17:37.824Z,98503.12
2018-03-18T21:20:06.172Z,98508.68
2018-03-18T21:22:36.251Z,98511.17
2018-03-18T21:25:06.887Z,98508.34
2018-03-18T21:27:36.599Z,98509.02
2018-03-18T21:30:06.633Z,98508.02
2018-03-18T21:32:35.272Z,98511.27
2018-03-18T21:35:03.612Z,98506.00
2018-03-18T21:37:31.979Z,98507.62
2018-03-18T21:40:00.381Z,98510.77
2018-03-18T21:42:28.732Z,98513.80
2018-03-18T21:44:58.137Z,98509.56
2018-03-18T21:47:26.611Z,98513.34
2018-03-18T21:49:54.957Z,98508.75
2018-03-18T21:52:23.320Z,98504.69
2018-03-18T21:54:51.653Z,98513.78
2018-03-18T21:57:20.450Z,98510.88
2018-03-18T21:59:50.482Z,98510.27
2018-03-18T22:02:19.734Z,98513.88
2018-03-18T22:04:48.550Z,98505.73
2018-03-18T22:07:17.829Z,98509.71
2018-03-18T22:09:48.831Z,98512.14
2018-03-18T22:12:17.169Z,98511.62
2018-03-18T22:14:45.574Z,98509.71
2018-03-18T22:17:17.364Z,98502.88
2018-03-18T22:19:46.336Z,98505.40
2018-03-18T22:22:14.933Z,98506.87
2018-03-18T22:24:44.985Z,98505.40
2018-03-18T22:27:13.438Z,98508.23
2018-03-18T22:29:41.808Z,98513.33
2018-03-18T22:32:10.163Z,98518.02
2018-03-18T22:34:39.725Z,98508.95
2018-03-18T22:37:08.118Z,98512.48
2018-03-18T22:39:37.255Z,98517.63
2018-03-18T22:42:05.802Z,98509.63
2018-03-18T22:44:34.996Z,98504.75
2018-03-18T22:47:03.362Z,98507.56
2018-03-18T22:49:32.480Z,98500.41
2018-03-18T22:52:01.848Z,98508.77
2018-03-18T22:54:30.253Z,98509.22
2018-03-18T22:56:59.336Z,98509.27
2018-03-18T22:59:31.186Z,98505.75
2018-03-18T23:02:00.339Z,98507.95
2018-03-18T23:04:28.707Z,98508.00
2018-03-18T23:06:59.975Z,98506.03
2018-03-18T23:09:28.535Z,98500.41
2018-03-18T23:11:56.946Z,98495.16
2018-03-18T23:14:27.750Z,98494.20
2018-03-18T23:16:56.404Z,98495.67
2018-03-18T23:19:25.049Z,98494.22
2018-03-18T23:21:53.424Z,98495.20
2018-03-18T23:24:21.759Z,98494.96
2018-03-18T23:26:51.077Z,98493.44
2018-03-18T23:29:19.716Z,98485.13
2018-03-18T23:31:50.620Z,98495.10
2018-03-18T23:34:19.479Z,98497.31
2018-03-18T23:36:48.311Z,98495.97
2018-03-18T23:39:17.395Z,98498.56
2018-03-18T23:41:46.745Z,98492.58
2018-03-18T23:44:15.083Z,98489.80
2018-03-18T23:46:43.877Z,98492.13
2018-03-18T23:49:14.976Z,98489.58
2018-03-18T23:51:46.665Z,98486.77
2018-03-18T23:54:17.481Z,98489.53
2018-03-18T23:56:47.558Z,98495.69
2018-03-18T23:59:17.231Z,98501.05
